Time;durP1;ratioP1;P1;durP2;ratioP2;P2;SDS_P1;SDS_P2;PMS_P1;PMS_P2;Temp;Humidity;BMP_temperature;BMP_pressure;BME280_temperature;BME280_humidity;BME280_pressure;Samples;Min_cycle;Max_cycle;Signal;HPM_P1;HPM_P2
2023/08/04 00:00:29;;;;;;;3.00;2.22;;;;;;;;;;5064063;28;20039;-86
2023/08/04 00:02:55;;;;;;;3.55;1.98;;;;;;;;;;5058166;28;20028;-86
2023/08/04 00:05:21;;;;;;;3.08;2.55;;;;;;;;;;5066138;28;20084;-89
2023/08/04 00:07:46;;;;;;;2.22;1.83;;;;;;;;;;5062941;28;20053;-90
2023/08/04 00:10:12;;;;;;;3.00;2.55;;;;;;;;;;5064690;28;20028;-88
2023/08/04 00:12:37;;;;;;;2.38;1.50;;;;;;;;;;5062703;28;20028;-88
2023/08/04 00:15:04;;;;;;;3.92;2.70;;;;;;;;;;5067546;28;20028;-90
2023/08/04 00:17:29;;;;;;;3.28;2.38;;;;;;;;;;5063333;28;20027;-89
2023/08/04 00:19:55;;;;;;;2.90;1.98;;;;;;;;;;5059736;28;20044;-88
2023/08/04 00:22:21;;;;;;;3.72;2.25;;;;;;;;;;5065127;28;20357;-89
2023/08/04 00:24:46;;;;;;;2.13;1.67;;;;;;;;;;5064866;28;20039;-89
2023/08/04 00:27:12;;;;;;;2.25;1.83;;;;;;;;;;5064568;28;20074;-87
2023/08/04 00:29:37;;;;;;;7.20;1.98;;;;;;;;;;5059887;28;20032;-90
2023/08/04 00:32:03;;;;;;;2.45;1.83;;;;;;;;;;5057872;28;20357;-88
2023/08/04 00:34:28;;;;;;;3.15;2.17;;;;;;;;;;5064018;28;20024;-89
2023/08/04 00:36:54;;;;;;;2.60;1.73;;;;;;;;;;5063266;28;20028;-89
2023/08/04 00:39:20;;;;;;;2.67;2.03;;;;;;;;;;5056990;28;20148;-88
2023/08/04 00:41:45;;;;;;;2.53;2.17;;;;;;;;;;5059063;28;20025;-88
2023/08/04 00:44:11;;;;;;;3.88;3.28;;;;;;;;;;5056458;28;20033;-88
2023/08/04 00:46:37;;;;;;;2.88;1.88;;;;;;;;;;5062138;28;20051;-87
2023/08/04 00:49:05;;;;;;;3.08;2.25;;;;;;;;;;5062105;28;20036;-86
2023/08/04 00:51:31;;;;;;;3.00;2.50;;;;;;;;;;5057103;28;20017;-85
2023/08/04 00:53:57;;;;;;;3.28;2.47;;;;;;;;;;5058150;28;20117;-88
2023/08/04 00:56:22;;;;;;;2.22;1.65;;;;;;;;;;5058526;28;20367;-87
2023/08/04 00:58:48;;;;;;;2.38;2.03;;;;;;;;;;5063764;28;20059;-88
2023/08/04 01:01:14;;;;;;;3.03;1.90;;;;;;;;;;5062629;28;20016;-86
2023/08/04 01:03:40;;;;;;;3.67;2.63;;;;;;;;;;5060066;28;20020;-87
2023/08/04 01:06:30;;;;;;;2.28;1.95;;;;;;;;;;5064954;28;20044;-89
2023/08/04 01:09:32;;;;;;;2.55;1.95;;;;;;;;;;5060821;28;20037;-87
2023/08/04 01:12:19;;;;;;;3.00;2.08;;;;;;;;;;5058315;28;20123;-87
2023/08/04 01:14:48;;;;;;;2.67;1.88;;;;;;;;;;5060676;28;20035;-88
2023/08/04 01:17:28;;;;;;;2.88;1.92;;;;;;;;;;5059916;28;20027;-88
2023/08/04 01:19:54;;;;;;;2.65;2.20;;;;;;;;;;5058929;28;20037;-88
2023/08/04 01:22:21;;;;;;;2.75;1.92;;;;;;;;;;5060602;28;20112;-88
2023/08/04 01:24:46;;;;;;;3.38;2.03;;;;;;;;;;5056765;28;20112;-87
2023/08/04 01:27:14;;;;;;;5.15;3.15;;;;;;;;;;5058266;28;20064;-87
2023/08/04 01:29:43;;;;;;;3.83;2.13;;;;;;;;;;5050377;28;20025;-87
2023/08/04 01:32:09;;;;;;;3.67;2.45;;;;;;;;;;5056493;28;20044;-87
2023/08/04 01:34:35;;;;;;;3.70;1.98;;;;;;;;;;5060037;28;20036;-87
2023/08/04 01:37:00;;;;;;;2.50;2.00;;;;;;;;;;5054607;28;20029;-90
2023/08/04 01:39:26;;;;;;;2.58;2.13;;;;;;;;;;5060221;28;20588;-89
2023/08/04 01:41:51;;;;;;;3.35;2.15;;;;;;;;;;5053788;28;20112;-85
2023/08/04 01:44:17;;;;;;;3.10;2.08;;;;;;;;;;5058039;28;20036;-87
2023/08/04 01:46:42;;;;;;;3.40;2.17;;;;;;;;;;5053242;28;20025;-85
2023/08/04 01:49:09;;;;;;;3.33;2.35;;;;;;;;;;5056080;28;20029;-89
2023/08/04 01:51:35;;;;;;;3.22;2.17;;;;;;;;;;5054815;28;20051;-89
2023/08/04 01:54:01;;;;;;;2.95;2.45;;;;;;;;;;5057343;28;20040;-89
2023/08/04 01:56:27;;;;;;;3.08;2.15;;;;;;;;;;5057496;28;20029;-89
2023/08/04 01:58:52;;;;;;;3.10;2.35;;;;;;;;;;5057981;28;20031;-88
2023/08/04 02:01:18;;;;;;;2.45;1.85;;;;;;;;;;5051881;28;20697;-87
2023/08/04 02:03:47;;;;;;;3.30;2.10;;;;;;;;;;5051820;28;20057;-87
2023/08/04 02:06:13;;;;;;;3.58;2.45;;;;;;;;;;5054010;28;20049;-87
2023/08/04 02:08:39;;;;;;;2.80;2.10;;;;;;;;;;5056096;28;20463;-86
2023/08/04 02:11:04;;;;;;;2.67;2.00;;;;;;;;;;5053716;28;20035;-86
2023/08/04 02:13:30;;;;;;;3.40;2.40;;;;;;;;;;5063019;28;20032;-86
2023/08/04 02:15:55;;;;;;;2.90;1.80;;;;;;;;;;5056820;28;20464;-85
2023/08/04 02:18:21;;;;;;;2.90;1.80;;;;;;;;;;5059195;28;20036;-84
2023/08/04 02:20:46;;;;;;;3.83;2.72;;;;;;;;;;5058724;28;20074;-86
2023/08/04 02:23:11;;;;;;;5.88;2.10;;;;;;;;;;5056396;28;20091;-83
2023/08/04 02:25:37;;;;;;;2.60;2.00;;;;;;;;;;5051115;28;20091;-84
2023/08/04 02:28:03;;;;;;;3.45;2.60;;;;;;;;;;5052780;28;20039;-84
2023/08/04 02:30:28;;;;;;;4.60;2.92;;;;;;;;;;5055386;28;20159;-84
2023/08/04 02:32:54;;;;;;;2.20;1.75;;;;;;;;;;5057803;28;20083;-85
2023/08/04 02:35:19;;;;;;;2.67;1.55;;;;;;;;;;5063176;28;20070;-86
2023/08/04 02:37:46;;;;;;;6.50;2.50;;;;;;;;;;5058145;28;20064;-89
2023/08/04 02:40:12;;;;;;;3.40;2.35;;;;;;;;;;5061750;28;20472;-90
2023/08/04 02:42:37;;;;;;;1.90;1.70;;;;;;;;;;5058398;28;20036;-88
2023/08/04 02:45:03;;;;;;;4.10;3.03;;;;;;;;;;5056937;28;20036;-87
2023/08/04 02:47:29;;;;;;;3.60;2.33;;;;;;;;;;5062071;28;20024;-88
2023/08/04 02:49:54;;;;;;;2.92;2.25;;;;;;;;;;5063017;28;20460;-90
2023/08/04 02:52:20;;;;;;;5.20;2.83;;;;;;;;;;5060101;28;20472;-87
2023/08/04 02:54:53;;;;;;;3.40;2.08;;;;;;;;;;5056972;28;20025;-88
2023/08/04 02:57:18;;;;;;;2.55;1.70;;;;;;;;;;5064376;28;20064;-88
2023/08/04 02:59:44;;;;;;;3.13;2.13;;;;;;;;;;5060593;28;20434;-87
2023/08/04 03:02:09;;;;;;;2.97;2.45;;;;;;;;;;5063278;28;20056;-87
2023/08/04 03:04:35;;;;;;;3.17;2.40;;;;;;;;;;5056915;28;20522;-87
2023/08/04 03:07:00;;;;;;;3.22;2.20;;;;;;;;;;5057742;28;20399;-88
2023/08/04 03:09:28;;;;;;;3.92;2.42;;;;;;;;;;5066042;28;20047;-89
2023/08/04 03:12:06;;;;;;;3.53;2.95;;;;;;;;;;5062055;28;20388;-89
2023/08/04 03:14:32;;;;;;;4.18;2.83;;;;;;;;;;5059173;28;20933;-88
2023/08/04 03:16:57;;;;;;;3.95;2.50;;;;;;;;;;5058837;28;20033;-88
2023/08/04 03:19:23;;;;;;;2.42;1.85;;;;;;;;;;5059501;28;20028;-86
2023/08/04 03:21:48;;;;;;;3.13;2.35;;;;;;;;;;5049695;28;20500;-87
2023/08/04 03:24:14;;;;;;;3.38;2.33;;;;;;;;;;5061822;28;20100;-86
2023/08/04 03:26:39;;;;;;;6.75;3.38;;;;;;;;;;5049881;28;20497;-87
2023/08/04 03:29:05;;;;;;;3.28;2.20;;;;;;;;;;5052637;28;20547;-86
2023/08/04 03:31:33;;;;;;;4.13;2.33;;;;;;;;;;5059564;28;20022;-87
2023/08/04 03:33:58;;;;;;;3.40;2.58;;;;;;;;;;5055556;28;20680;-87
2023/08/04 03:36:26;;;;;;;4.63;3.08;;;;;;;;;;5058640;28;20021;-87
2023/08/04 03:38:52;;;;;;;2.90;2.42;;;;;;;;;;5056366;28;20033;-86
2023/08/04 03:41:17;;;;;;;3.83;2.85;;;;;;;;;;5059359;28;20074;-86
2023/08/04 03:43:43;;;;;;;3.80;2.53;;;;;;;;;;5060303;28;20170;-87
2023/08/04 03:46:08;;;;;;;3.90;2.92;;;;;;;;;;5053298;28;20016;-87
2023/08/04 03:48:34;;;;;;;2.35;2.03;;;;;;;;;;5060556;28;20040;-87
2023/08/04 03:50:59;;;;;;;3.30;2.60;;;;;;;;;;5060446;28;20121;-87
2023/08/04 03:53:25;;;;;;;3.03;2.10;;;;;;;;;;5060087;28;20039;-88
2023/08/04 03:55:50;;;;;;;3.88;3.17;;;;;;;;;;5056857;28;20093;-87
2023/08/04 03:58:16;;;;;;;4.40;2.28;;;;;;;;;;5045416;28;20037;-86
2023/08/04 04:00:41;;;;;;;3.20;2.45;;;;;;;;;;5055748;28;20040;-88
2023/08/04 04:03:07;;;;;;;4.10;2.60;;;;;;;;;;5052460;28;20546;-90
2023/08/04 04:05:33;;;;;;;3.72;2.22;;;;;;;;;;5053654;28;20472;-87
2023/08/04 04:07:58;;;;;;;4.10;3.35;;;;;;;;;;5059506;28;20028;-87
2023/08/04 04:10:24;;;;;;;3.90;3.13;;;;;;;;;;5061789;28;20033;-83
2023/08/04 04:12:49;;;;;;;4.15;2.35;;;;;;;;;;5051324;28;20430;-85
2023/08/04 04:15:15;;;;;;;2.33;1.95;;;;;;;;;;5060384;28;20399;-82
2023/08/04 04:17:40;;;;;;;3.30;2.08;;;;;;;;;;5057504;28;20095;-84
2023/08/04 04:20:06;;;;;;;3.58;2.47;;;;;;;;;;5060270;28;20074;-83
2023/08/04 04:22:33;;;;;;;2.28;1.80;;;;;;;;;;5055561;28;20041;-85
2023/08/04 04:25:00;;;;;;;3.10;2.10;;;;;;;;;;5063651;28;20041;-84
2023/08/04 04:27:25;;;;;;;2.45;1.80;;;;;;;;;;5057534;28;20037;-83
2023/08/04 04:29:51;;;;;;;4.47;2.78;;;;;;;;;;5055221;28;20031;-85
2023/08/04 04:32:16;;;;;;;5.47;2.42;;;;;;;;;;5051969;28;20495;-82
2023/08/04 04:34:42;;;;;;;3.42;2.25;;;;;;;;;;5051465;28;20024;-82
2023/08/04 04:37:07;;;;;;;3.45;2.35;;;;;;;;;;5049581;28;20032;-81
2023/08/04 04:39:33;;;;;;;3.38;2.22;;;;;;;;;;5048885;28;20063;-81
2023/08/04 04:41:58;;;;;;;2.97;2.47;;;;;;;;;;5057671;28;20512;-83
2023/08/04 04:44:24;;;;;;;3.38;2.53;;;;;;;;;;5050042;28;20598;-85
2023/08/04 04:46:50;;;;;;;2.53;2.03;;;;;;;;;;5055268;28;20021;-87
2023/08/04 04:49:16;;;;;;;3.30;2.15;;;;;;;;;;5062606;28;20071;-82
2023/08/04 04:51:42;;;;;;;3.42;2.33;;;;;;;;;;5057517;28;20098;-83
2023/08/04 04:54:08;;;;;;;2.30;1.90;;;;;;;;;;5054344;28;20085;-85
2023/08/04 04:56:33;;;;;;;3.97;2.78;;;;;;;;;;5055537;28;20457;-84
2023/08/04 04:58:59;;;;;;;4.28;2.58;;;;;;;;;;5056538;28;20025;-86
2023/08/04 05:01:24;;;;;;;3.90;2.85;;;;;;;;;;5053168;28;20041;-84
2023/08/04 05:03:50;;;;;;;4.90;3.15;;;;;;;;;;5058965;28;20028;-84
2023/08/04 05:06:15;;;;;;;3.28;2.45;;;;;;;;;;5066648;28;20036;-84
2023/08/04 05:08:40;;;;;;;3.45;2.35;;;;;;;;;;5056434;28;20047;-85
2023/08/04 05:11:06;;;;;;;4.03;2.67;;;;;;;;;;5057842;28;20035;-84
2023/08/04 05:13:32;;;;;;;3.95;2.55;;;;;;;;;;5063027;28;20033;-86
2023/08/04 05:15:57;;;;;;;3.30;2.50;;;;;;;;;;5052329;28;20044;-84
2023/08/04 05:18:22;;;;;;;4.35;2.97;;;;;;;;;;5054192;28;20037;-85
2023/08/04 05:20:48;;;;;;;3.78;2.78;;;;;;;;;;5059661;28;20043;-86
2023/08/04 05:23:14;;;;;;;4.55;2.85;;;;;;;;;;5055992;28;20020;-83
2023/08/04 05:25:40;;;;;;;3.92;2.72;;;;;;;;;;5055346;28;20041;-83
2023/08/04 05:28:22;;;;;;;4.00;2.92;;;;;;;;;;5050774;28;20054;-85
2023/08/04 05:30:48;;;;;;;5.72;2.85;;;;;;;;;;5052725;28;20048;-83
2023/08/04 05:33:14;;;;;;;4.25;2.95;;;;;;;;;;5053139;28;20036;-84
2023/08/04 05:35:44;;;;;;;3.28;2.70;;;;;;;;;;5061659;28;20024;-83
2023/08/04 05:38:09;;;;;;;4.22;2.97;;;;;;;;;;5059302;28;20384;-83
2023/08/04 05:40:34;;;;;;;7.13;3.15;;;;;;;;;;5066791;28;20028;-83
2023/08/04 05:43:00;;;;;;;4.88;2.88;;;;;;;;;;5051187;28;20033;-85
2023/08/04 05:45:25;;;;;;;3.63;2.92;;;;;;;;;;5061197;28;20048;-84
2023/08/04 05:47:51;;;;;;;4.65;3.50;;;;;;;;;;5056144;28;20111;-85
2023/08/04 05:50:16;;;;;;;4.28;3.15;;;;;;;;;;5064807;28;20391;-85
2023/08/04 05:52:42;;;;;;;5.50;3.63;;;;;;;;;;5057914;28;20074;-84
2023/08/04 05:55:07;;;;;;;5.07;3.35;;;;;;;;;;5062407;28;20090;-86
2023/08/04 05:57:33;;;;;;;6.18;3.83;;;;;;;;;;5061793;28;20102;-89
2023/08/04 05:59:58;;;;;;;4.32;3.15;;;;;;;;;;5061157;28;20025;-87
2023/08/04 06:02:23;;;;;;;3.42;2.55;;;;;;;;;;5063598;28;20027;-86
2023/08/04 06:04:49;;;;;;;4.78;3.40;;;;;;;;;;5055265;28;20107;-87
2023/08/04 06:07:15;;;;;;;5.05;3.33;;;;;;;;;;5062196;28;20071;-87
2023/08/04 06:09:41;;;;;;;4.45;3.35;;;;;;;;;;5054839;28;20030;-87
2023/08/04 06:12:08;;;;;;;3.25;2.88;;;;;;;;;;5054627;28;20354;-87
2023/08/04 06:14:33;;;;;;;5.15;3.47;;;;;;;;;;5069824;28;20391;-86
2023/08/04 06:16:58;;;;;;;8.93;2.63;;;;;;;;;;5065510;28;20029;-85
2023/08/04 06:19:24;;;;;;;5.05;2.85;;;;;;;;;;5053890;28;20051;-85
2023/08/04 06:21:49;;;;;;;3.35;2.35;;;;;;;;;;5048399;28;20499;-86
2023/08/04 06:24:28;;;;;;;3.20;2.40;;;;;;;;;;5051984;28;20457;-85
2023/08/04 06:26:53;;;;;;;5.90;3.35;;;;;;;;;;5056669;28;20044;-83
2023/08/04 06:29:19;;;;;;;3.45;3.03;;;;;;;;;;5053789;28;20464;-85
2023/08/04 06:31:44;;;;;;;3.15;2.63;;;;;;;;;;5069219;28;20028;-84
2023/08/04 06:34:09;;;;;;;3.38;2.50;;;;;;;;;;5062512;28;20113;-85
2023/08/04 06:36:35;;;;;;;3.80;2.83;;;;;;;;;;5058023;28;20021;-84
2023/08/04 06:39:00;;;;;;;3.90;3.05;;;;;;;;;;5051078;28;20033;-87
2023/08/04 06:41:26;;;;;;;4.78;3.15;;;;;;;;;;5041972;28;20026;-84
2023/08/04 06:43:52;;;;;;;3.83;2.70;;;;;;;;;;5060187;28;20043;-84
2023/08/04 06:46:17;;;;;;;3.55;3.08;;;;;;;;;;5052363;28;20033;-83
2023/08/04 06:48:43;;;;;;;3.88;3.17;;;;;;;;;;5054527;28;20016;-84
2023/08/04 06:51:08;;;;;;;3.38;2.30;;;;;;;;;;5062651;28;20075;-86
2023/08/04 06:53:33;;;;;;;3.40;2.65;;;;;;;;;;5065577;28;20021;-85
2023/08/04 06:55:59;;;;;;;4.80;2.30;;;;;;;;;;5067118;28;20048;-87
2023/08/04 06:58:24;;;;;;;2.78;2.20;;;;;;;;;;5048730;28;20423;-84
2023/08/04 07:00:50;;;;;;;3.20;2.17;;;;;;;;;;5068064;28;20724;-82
2023/08/04 07:03:15;;;;;;;3.35;2.13;;;;;;;;;;5053071;28;20380;-85
2023/08/04 07:05:41;;;;;;;4.15;2.83;;;;;;;;;;5065154;28;20427;-83
2023/08/04 07:08:06;;;;;;;3.38;2.42;;;;;;;;;;5051778;28;20032;-84
2023/08/04 07:10:35;;;;;;;4.75;3.15;;;;;;;;;;5051583;28;20113;-84
2023/08/04 07:13:01;;;;;;;4.80;2.30;;;;;;;;;;5050245;28;20028;-84
2023/08/04 07:15:27;;;;;;;4.47;2.10;;;;;;;;;;5058359;28;20468;-83
2023/08/04 07:17:52;;;;;;;4.07;2.40;;;;;;;;;;5060383;28;20033;-84
2023/08/04 07:20:17;;;;;;;8.50;2.22;;;;;;;;;;5049430;28;20043;-85
2023/08/04 07:22:43;;;;;;;3.55;2.45;;;;;;;;;;5063467;28;20024;-85
2023/08/04 07:25:09;;;;;;;3.25;2.38;;;;;;;;;;5061445;28;20522;-84
2023/08/04 07:27:34;;;;;;;3.58;2.30;;;;;;;;;;5049434;28;20366;-85
2023/08/04 07:30:00;;;;;;;3.00;2.15;;;;;;;;;;5067250;28;20036;-84
2023/08/04 07:32:25;;;;;;;2.95;2.25;;;;;;;;;;5041741;28;20032;-84
2023/08/04 07:34:51;;;;;;;3.83;2.47;;;;;;;;;;5043739;28;20085;-84
2023/08/04 07:37:16;;;;;;;3.15;2.22;;;;;;;;;;5048950;28;20024;-85
2023/08/04 07:39:42;;;;;;;4.93;2.40;;;;;;;;;;5064895;28;20082;-84
2023/08/04 07:42:07;;;;;;;3.03;2.13;;;;;;;;;;5050558;28;20514;-85
2023/08/04 07:44:36;;;;;;;1.90;1.67;;;;;;;;;;5047879;28;20028;-84
2023/08/04 07:47:01;;;;;;;3.63;2.30;;;;;;;;;;5046437;28;20024;-86
2023/08/04 07:49:27;;;;;;;3.20;2.10;;;;;;;;;;5052208;28;20757;-83
2023/08/04 07:51:52;;;;;;;3.35;2.10;;;;;;;;;;5050874;28;20020;-89
2023/08/04 07:54:18;;;;;;;3.55;2.75;;;;;;;;;;5052177;28;20090;-90
2023/08/04 07:56:43;;;;;;;3.22;2.10;;;;;;;;;;5052431;28;20021;-86
2023/08/04 07:59:09;;;;;;;3.50;2.55;;;;;;;;;;5068461;28;20040;-84
2023/08/04 08:01:35;;;;;;;5.72;2.35;;;;;;;;;;5056194;28;20033;-86
2023/08/04 08:04:01;;;;;;;3.30;2.33;;;;;;;;;;5047458;28;20033;-87
2023/08/04 08:06:26;;;;;;;3.03;2.10;;;;;;;;;;5055993;28;20053;-87
2023/08/04 08:08:52;;;;;;;3.72;2.50;;;;;;;;;;5063941;28;20075;-85
2023/08/04 08:11:17;;;;;;;2.78;2.05;;;;;;;;;;5062031;28;20029;-83
2023/08/04 08:13:43;;;;;;;3.85;2.58;;;;;;;;;;5071779;28;20363;-86
2023/08/04 08:16:13;;;;;;;2.72;2.05;;;;;;;;;;5056729;28;20443;-83
2023/08/04 08:18:39;;;;;;;2.72;2.05;;;;;;;;;;5051045;28;20036;-85
2023/08/04 08:21:08;;;;;;;3.80;2.50;;;;;;;;;;5049941;28;20079;-84
2023/08/04 08:23:34;;;;;;;3.20;2.75;;;;;;;;;;5060144;28;20121;-85
2023/08/04 08:26:00;;;;;;;3.50;2.40;;;;;;;;;;5050794;28;20098;-86
2023/08/04 08:28:26;;;;;;;3.28;2.47;;;;;;;;;;5051007;28;20037;-83
2023/08/04 08:30:51;;;;;;;7.10;3.10;;;;;;;;;;5050516;28;20062;-82
2023/08/04 08:33:17;;;;;;;3.75;2.78;;;;;;;;;;5056595;28;20100;-83
2023/08/04 08:35:42;;;;;;;4.22;2.88;;;;;;;;;;5049121;28;20027;-86
2023/08/04 08:38:08;;;;;;;4.38;2.53;;;;;;;;;;5049877;28;20043;-86
2023/08/04 08:40:33;;;;;;;3.30;2.50;;;;;;;;;;5050979;28;20430;-84
2023/08/04 08:42:59;;;;;;;3.15;2.38;;;;;;;;;;5049599;28;20028;-85
2023/08/04 08:45:29;;;;;;;3.95;2.92;;;;;;;;;;5051272;28;20562;-85
2023/08/04 08:47:56;;;;;;;2.50;1.83;;;;;;;;;;5049688;28;20443;-84
2023/08/04 08:50:26;;;;;;;3.97;2.42;;;;;;;;;;5041376;28;20040;-84
2023/08/04 08:53:06;;;;;;;2.78;2.08;;;;;;;;;;5038530;28;20473;-84
2023/08/04 08:55:32;;;;;;;3.42;2.35;;;;;;;;;;5040131;28;20021;-85
2023/08/04 08:57:57;;;;;;;3.45;2.13;;;;;;;;;;5039756;28;20397;-88
2023/08/04 09:00:23;;;;;;;4.53;3.17;;;;;;;;;;5036379;28;20025;-87
2023/08/04 09:02:48;;;;;;;4.75;2.70;;;;;;;;;;5047469;28;20033;-86
2023/08/04 09:05:16;;;;;;;3.47;2.58;;;;;;;;;;5060092;28;20025;-87
2023/08/04 09:07:41;;;;;;;4.28;2.53;;;;;;;;;;5050739;28;20369;-88
2023/08/04 09:10:08;;;;;;;2.97;2.22;;;;;;;;;;5053137;28;20032;-89
2023/08/04 09:12:34;;;;;;;3.78;2.58;;;;;;;;;;5060943;28;20416;-86
2023/08/04 09:15:01;;;;;;;4.80;3.38;;;;;;;;;;5050709;28;20094;-86
2023/08/04 09:17:38;;;;;;;4.47;3.00;;;;;;;;;;5050210;28;20025;-86
2023/08/04 09:20:09;;;;;;;3.90;2.72;;;;;;;;;;5052086;28;20029;-87
2023/08/04 09:22:40;;;;;;;3.45;2.20;;;;;;;;;;5048571;28;20029;-90
2023/08/04 09:25:07;;;;;;;3.17;2.42;;;;;;;;;;5058482;28;20103;-90
2023/08/04 09:27:39;;;;;;;3.50;2.47;;;;;;;;;;5052980;28;20041;-88
2023/08/04 09:30:06;;;;;;;3.72;2.28;;;;;;;;;;5049766;28;20037;-87
2023/08/04 09:32:39;;;;;;;3.00;2.15;;;;;;;;;;5049166;28;20032;-89
2023/08/04 09:35:06;;;;;;;2.92;2.25;;;;;;;;;;5057526;28;20020;-88
2023/08/04 09:37:36;;;;;;;4.18;2.70;;;;;;;;;;5062246;28;20021;-90
2023/08/04 09:40:04;;;;;;;3.10;2.25;;;;;;;;;;5067523;28;20037;-89
2023/08/04 09:42:30;;;;;;;5.30;3.10;;;;;;;;;;5052912;28;20547;-88
2023/08/04 09:44:56;;;;;;;3.05;2.63;;;;;;;;;;5071242;28;20107;-87
2023/08/04 09:47:26;;;;;;;3.55;2.50;;;;;;;;;;5054452;28;20056;-86
2023/08/04 09:49:53;;;;;;;3.30;2.47;;;;;;;;;;5052569;28;20036;-86
2023/08/04 09:52:22;;;;;;;2.53;1.98;;;;;;;;;;5050918;28;20487;-86
2023/08/04 09:54:50;;;;;;;3.67;2.80;;;;;;;;;;5060986;28;20021;-89
2023/08/04 09:57:19;;;;;;;4.07;2.70;;;;;;;;;;5058197;28;20024;-91
2023/08/04 09:59:46;;;;;;;3.72;2.75;;;;;;;;;;5058378;28;20036;-91
2023/08/04 10:02:13;;;;;;;4.50;2.95;;;;;;;;;;5051759;28;20475;-87
2023/08/04 10:04:40;;;;;;;3.70;2.50;;;;;;;;;;5054077;28;20475;-88
2023/08/04 10:07:09;;;;;;;3.70;2.53;;;;;;;;;;5052652;28;20496;-89
2023/08/04 10:09:38;;;;;;;3.95;2.55;;;;;;;;;;5050985;28;20029;-91
2023/08/04 10:12:04;;;;;;;4.53;2.78;;;;;;;;;;5058773;28;20384;-86
2023/08/04 10:14:30;;;;;;;3.40;2.65;;;;;;;;;;5064449;28;20025;-86
2023/08/04 10:16:59;;;;;;;3.67;2.38;;;;;;;;;;5064326;28;20035;-88
2023/08/04 10:19:24;;;;;;;4.78;2.78;;;;;;;;;;5051583;28;20028;-86
2023/08/04 10:21:50;;;;;;;3.50;2.58;;;;;;;;;;5061902;28;20055;-87
2023/08/04 10:24:20;;;;;;;3.65;2.80;;;;;;;;;;5056094;28;20039;-86
2023/08/04 10:26:48;;;;;;;3.05;2.13;;;;;;;;;;5060540;28;20072;-88
2023/08/04 10:29:15;;;;;;;3.33;2.25;;;;;;;;;;5062057;28;20052;-87
2023/08/04 10:31:50;;;;;;;3.45;2.33;;;;;;;;;;5066714;28;20029;-88
2023/08/04 10:34:37;;;;;;;4.72;3.60;;;;;;;;;;5058890;28;20032;-85
2023/08/04 10:37:20;;;;;;;3.20;2.42;;;;;;;;;;5062321;28;20104;-88
2023/08/04 10:39:56;;;;;;;3.38;2.45;;;;;;;;;;5065060;28;20061;-90
2023/08/04 10:42:27;;;;;;;4.10;2.67;;;;;;;;;;5071647;28;20412;-88
2023/08/04 10:45:07;;;;;;;3.75;2.45;;;;;;;;;;5074611;28;20063;-85
2023/08/04 10:47:46;;;;;;;3.67;2.17;;;;;;;;;;5058572;28;20500;-87
2023/08/04 10:50:15;;;;;;;2.85;1.92;;;;;;;;;;5061111;28;20032;-88
2023/08/04 10:52:41;;;;;;;3.38;2.40;;;;;;;;;;5064140;28;20473;-85
2023/08/04 10:55:12;;;;;;;3.15;2.30;;;;;;;;;;5068203;28;20496;-87
2023/08/04 10:57:40;;;;;;;2.10;1.58;;;;;;;;;;5060343;28;20021;-86
2023/08/04 11:00:09;;;;;;;4.57;2.50;;;;;;;;;;5075497;28;20033;-88
2023/08/04 11:02:36;;;;;;;3.70;2.55;;;;;;;;;;5075054;28;20059;-86
2023/08/04 11:05:03;;;;;;;4.88;2.92;;;;;;;;;;5056085;28;20499;-88
2023/08/04 11:07:29;;;;;;;3.83;2.60;;;;;;;;;;5058666;28;20095;-89
2023/08/04 11:09:55;;;;;;;3.50;2.72;;;;;;;;;;5073116;28;20071;-86
2023/08/04 11:12:21;;;;;;;4.90;3.10;;;;;;;;;;5067145;28;20026;-88
2023/08/04 11:14:47;;;;;;;3.97;2.80;;;;;;;;;;5046208;28;20134;-88
2023/08/04 11:17:17;;;;;;;4.18;2.85;;;;;;;;;;5061205;28;20791;-88
2023/08/04 11:19:45;;;;;;;4.40;3.05;;;;;;;;;;5053759;28;20029;-87
2023/08/04 11:22:18;;;;;;;3.85;2.78;;;;;;;;;;5062172;28;20483;-89
2023/08/04 11:24:44;;;;;;;4.70;2.95;;;;;;;;;;5053441;28;20158;-88
2023/08/04 11:27:12;;;;;;;3.33;2.38;;;;;;;;;;5062729;28;20024;-87
2023/08/04 11:29:37;;;;;;;5.47;3.10;;;;;;;;;;5056825;28;20056;-86
2023/08/04 11:32:18;;;;;;;3.08;2.25;;;;;;;;;;5050444;28;20484;-86
2023/08/04 11:34:46;;;;;;;3.20;2.70;;;;;;;;;;5074035;28;20524;-86
2023/08/04 11:37:12;;;;;;;3.13;2.55;;;;;;;;;;5064324;28;20035;-88
2023/08/04 11:39:40;;;;;;;4.10;2.38;;;;;;;;;;5065079;28;20032;-88
2023/08/04 11:42:10;;;;;;;2.78;2.45;;;;;;;;;;5063735;28;20380;-85
2023/08/04 11:44:36;;;;;;;4.85;3.03;;;;;;;;;;5060122;28;20032;-88
2023/08/04 11:47:05;;;;;;;3.15;2.10;;;;;;;;;;5050653;28;20017;-86
2023/08/04 11:49:30;;;;;;;7.75;2.83;;;;;;;;;;5055888;28;20031;-87
2023/08/04 11:51:56;;;;;;;2.83;2.20;;;;;;;;;;5052017;28;20036;-86
2023/08/04 11:54:24;;;;;;;3.50;2.33;;;;;;;;;;5052935;28;20314;-87
2023/08/04 11:56:58;;;;;;;5.97;2.67;;;;;;;;;;5054913;28;20364;-87
2023/08/04 11:59:25;;;;;;;3.05;2.40;;;;;;;;;;5058465;28;20414;-88
2023/08/04 12:02:02;;;;;;;2.95;2.42;;;;;;;;;;5068280;28;20033;-86
2023/08/04 12:04:28;;;;;;;4.70;2.83;;;;;;;;;;5051335;28;20037;-88
2023/08/04 12:07:12;;;;;;;3.45;2.45;;;;;;;;;;5065838;28;20029;-87
2023/08/04 12:09:37;;;;;;;2.83;2.20;;;;;;;;;;5052473;28;20488;-86
2023/08/04 12:12:04;;;;;;;3.70;3.05;;;;;;;;;;5057282;28;20036;-86
2023/08/04 12:14:29;;;;;;;4.75;3.08;;;;;;;;;;5058031;28;20033;-86
2023/08/04 12:16:57;;;;;;;3.58;2.40;;;;;;;;;;5050695;28;20157;-87
2023/08/04 12:19:25;;;;;;;3.17;2.10;;;;;;;;;;5051314;28;20151;-86
2023/08/04 12:21:53;;;;;;;3.13;2.27;;;;;;;;;;5048104;28;20442;-84
2023/08/04 12:24:19;;;;;;;3.08;2.38;;;;;;;;;;5050899;28;20047;-86
2023/08/04 12:26:45;;;;;;;3.25;1.95;;;;;;;;;;5042522;28;20091;-88
2023/08/04 12:29:11;;;;;;;2.95;2.00;;;;;;;;;;5067906;28;20419;-89
2023/08/04 12:31:37;;;;;;;3.70;2.35;;;;;;;;;;5041045;28;20029;-86
2023/08/04 12:34:03;;;;;;;5.03;2.50;;;;;;;;;;5043672;28;22076;-86
2023/08/04 12:36:29;;;;;;;4.90;2.58;;;;;;;;;;5051336;28;20235;-88
2023/08/04 12:38:54;;;;;;;3.00;2.45;;;;;;;;;;5041885;28;20048;-90
2023/08/04 12:41:20;;;;;;;3.95;2.75;;;;;;;;;;5063306;28;20039;-87
2023/08/04 12:43:46;;;;;;;3.25;2.25;;;;;;;;;;5068703;28;20074;-89
2023/08/04 12:46:11;;;;;;;3.38;2.60;;;;;;;;;;5065852;28;20025;-86
2023/08/04 12:48:36;;;;;;;3.28;2.45;;;;;;;;;;5058956;28;20384;-88
2023/08/04 12:51:02;;;;;;;3.15;2.22;;;;;;;;;;5059081;28;20060;-88
2023/08/04 12:53:27;;;;;;;2.95;2.28;;;;;;;;;;5054622;28;20024;-87
2023/08/04 12:55:53;;;;;;;3.78;2.17;;;;;;;;;;5052733;28;20035;-87
2023/08/04 12:58:18;;;;;;;3.15;2.45;;;;;;;;;;5060275;28;20028;-86
2023/08/04 13:00:44;;;;;;;3.17;2.65;;;;;;;;;;5050917;28;20043;-89
2023/08/04 13:03:09;;;;;;;4.95;3.30;;;;;;;;;;5053240;28;20118;-86
2023/08/04 13:05:35;;;;;;;2.60;2.30;;;;;;;;;;5051581;28;20032;-86
2023/08/04 13:08:00;;;;;;;4.38;2.65;;;;;;;;;;5059328;28;20017;-88
2023/08/04 13:10:25;;;;;;;3.72;2.35;;;;;;;;;;5049045;28;20025;-87
2023/08/04 13:12:51;;;;;;;3.80;2.47;;;;;;;;;;5047510;28;20511;-89
2023/08/04 13:15:17;;;;;;;4.07;2.60;;;;;;;;;;5049487;28;20025;-87
2023/08/04 13:17:42;;;;;;;4.63;2.83;;;;;;;;;;5051406;28;20044;-88
2023/08/04 13:20:08;;;;;;;4.20;2.60;;;;;;;;;;5053885;28;20095;-88
2023/08/04 13:22:35;;;;;;;3.92;2.75;;;;;;;;;;5054923;28;20461;-90
2023/08/04 13:25:00;;;;;;;3.78;2.53;;;;;;;;;;5057227;28;20095;-85
2023/08/04 13:27:26;;;;;;;3.50;2.20;;;;;;;;;;5068859;28;20051;-88
2023/08/04 13:29:51;;;;;;;3.70;2.53;;;;;;;;;;5056432;28;20517;-87
2023/08/04 13:32:17;;;;;;;3.90;2.67;;;;;;;;;;5061741;28;20033;-86
2023/08/04 13:34:42;;;;;;;3.85;2.65;;;;;;;;;;5069337;28;20443;-87
2023/08/04 13:37:08;;;;;;;3.28;2.35;;;;;;;;;;5049090;28;20017;-90
2023/08/04 13:39:33;;;;;;;2.55;2.13;;;;;;;;;;5052057;28;20020;-86
2023/08/04 13:41:58;;;;;;;3.25;2.35;;;;;;;;;;5050746;28;20029;-87
2023/08/04 13:44:24;;;;;;;2.83;2.00;;;;;;;;;;5050481;28;20024;-88
2023/08/04 13:46:49;;;;;;;3.08;2.17;;;;;;;;;;5055846;28;20024;-89
2023/08/04 13:49:15;;;;;;;4.15;2.42;;;;;;;;;;5059700;28;20107;-90
2023/08/04 13:51:40;;;;;;;4.50;3.05;;;;;;;;;;5053657;28;20029;-88
2023/08/04 13:54:06;;;;;;;3.92;2.60;;;;;;;;;;5050747;28;20025;-89
2023/08/04 13:56:32;;;;;;;3.10;2.35;;;;;;;;;;5049721;28;20362;-87
2023/08/04 13:58:59;;;;;;;3.85;2.55;;;;;;;;;;5056358;28;20078;-88
2023/08/04 14:01:24;;;;;;;3.42;2.60;;;;;;;;;;5057585;28;20035;-88
2023/08/04 14:03:50;;;;;;;3.35;2.40;;;;;;;;;;5057009;28;20472;-88
2023/08/04 14:06:16;;;;;;;3.05;2.50;;;;;;;;;;5055293;28;20484;-89
2023/08/04 14:08:41;;;;;;;3.35;2.65;;;;;;;;;;5052808;28;20400;-91
2023/08/04 14:11:07;;;;;;;3.45;2.63;;;;;;;;;;5093880;28;20033;-89
2023/08/04 14:13:32;;;;;;;7.82;2.35;;;;;;;;;;5054424;28;20067;-88
2023/08/04 14:16:10;;;;;;;5.38;2.50;;;;;;;;;;5064216;28;20025;-90
2023/08/04 14:18:35;;;;;;;2.85;2.40;;;;;;;;;;5053415;28;20031;-89
2023/08/04 14:21:01;;;;;;;5.68;2.78;;;;;;;;;;5060991;28;20025;-88
2023/08/04 14:23:26;;;;;;;3.25;2.50;;;;;;;;;;5065447;28;20031;-88
2023/08/04 14:25:52;;;;;;;2.80;2.17;;;;;;;;;;5064265;28;20044;-89
2023/08/04 14:28:17;;;;;;;3.70;2.42;;;;;;;;;;5066554;28;20392;-88
2023/08/04 14:30:43;;;;;;;3.83;2.90;;;;;;;;;;5062620;28;20032;-89
2023/08/04 14:33:08;;;;;;;4.03;2.83;;;;;;;;;;5058789;28;20036;-88
2023/08/04 14:35:35;;;;;;;3.20;2.30;;;;;;;;;;5061031;28;20033;-89
2023/08/04 14:38:00;;;;;;;3.20;2.53;;;;;;;;;;5053863;28;20112;-87
2023/08/04 14:40:26;;;;;;;3.75;3.05;;;;;;;;;;5056818;28;20162;-86